createdAt,value
2022-11-24T00:01:19.979Z,1.80
2022-11-24T00:03:54.003Z,1.80
2022-11-24T00:06:22.295Z,1.80
2022-11-24T00:08:52.631Z,1.80
2022-11-24T00:11:22.724Z,1.80
2022-11-24T00:13:50.834Z,1.80
2022-11-24T00:16:20.995Z,1.80
2022-11-24T00:18:52.158Z,1.90
2022-11-24T00:21:21.191Z,1.90
2022-11-24T00:23:50.062Z,1.90
2022-11-24T00:26:22.076Z,1.80
2022-11-24T00:28:52.144Z,1.90
2022-11-24T00:31:22.293Z,1.90
2022-11-24T00:33:53.436Z,1.90
2022-11-24T00:36:22.714Z,1.90
2022-11-24T00:38:54.665Z,1.90
2022-11-24T00:41:22.943Z,1.90
2022-11-24T00:43:51.089Z,1.90
2022-11-24T00:46:19.616Z,1.90
2022-11-24T00:48:50.087Z,1.90
2022-11-24T00:51:21.739Z,1.90
2022-11-24T00:53:49.928Z,1.90
2022-11-24T00:56:18.015Z,1.90
2022-11-24T00:58:46.279Z,1.90
2022-11-24T01:01:16.970Z,1.90
2022-11-24T01:03:46.760Z,1.90
2022-11-24T01:06:16.443Z,1.90
2022-11-24T01:08:46.337Z,1.90
2022-11-24T01:11:16.938Z,1.90
2022-11-24T01:13:46.643Z,1.80
2022-11-24T01:16:16.681Z,1.90
2022-11-24T01:18:44.822Z,1.90
2022-11-24T01:21:12.956Z,1.90
2022-11-24T01:23:41.011Z,1.90
2022-11-24T01:26:12.792Z,1.90
2022-11-24T01:28:46.584Z,1.90
2022-11-24T01:31:16.722Z,2.00
2022-11-24T01:33:44.860Z,2.00
2022-11-24T01:36:13.406Z,2.00
2022-11-24T01:38:41.461Z,2.00
2022-11-24T01:41:13.790Z,2.00
2022-11-24T01:43:42.567Z,2.00
2022-11-24T01:46:18.895Z,2.00
2022-11-24T01:48:51.667Z,2.00
2022-11-24T01:51:24.391Z,2.00
2022-11-24T01:53:58.004Z,2.00
2022-11-24T01:56:28.717Z,2.00
2022-11-24T01:59:00.318Z,2.00
2022-11-24T02:01:29.334Z,2.00
2022-11-24T02:03:58.387Z,2.00
2022-11-24T02:06:30.173Z,2.00
2022-11-24T02:09:01.247Z,2.10
2022-11-24T02:11:36.179Z,2.00
2022-11-24T02:14:06.253Z,2.10
2022-11-24T02:16:36.434Z,2.00
2022-11-24T02:19:08.986Z,2.00
2022-11-24T02:21:37.164Z,2.00
2022-11-24T02:24:11.837Z,2.00
2022-11-24T02:26:46.772Z,2.00
2022-11-24T02:29:15.483Z,2.10
2022-11-24T02:31:48.341Z,2.10
2022-11-24T02:34:16.670Z,2.10
2022-11-24T02:36:44.809Z,2.10
2022-11-24T02:39:13.797Z,2.00
2022-11-24T02:41:47.345Z,2.10
2022-11-24T02:44:18.910Z,2.10
2022-11-24T02:46:47.009Z,2.10
2022-11-24T02:49:16.198Z,2.10
2022-11-24T02:51:44.256Z,2.10
2022-11-24T02:54:12.329Z,2.10
2022-11-24T02:56:40.361Z,2.10
2022-11-24T02:59:09.776Z,2.10
2022-11-24T03:01:37.831Z,2.10
2022-11-24T03:04:06.133Z,2.10
2022-11-24T03:06:34.203Z,2.10
2022-11-24T03:09:02.425Z,2.10
2022-11-24T03:11:30.510Z,2.10
2022-11-24T03:13:58.613Z,2.10
2022-11-24T03:16:28.063Z,2.10
2022-11-24T03:18:56.165Z,2.10
2022-11-24T03:21:24.230Z,2.10
2022-11-24T03:23:53.618Z,2.10
2022-11-24T03:26:25.946Z,2.10
2022-11-24T03:28:57.226Z,2.10
2022-11-24T03:31:29.612Z,2.10
2022-11-24T03:33:57.699Z,2.10
2022-11-24T03:36:25.752Z,2.10
2022-11-24T03:38:54.052Z,2.10
2022-11-24T03:41:22.114Z,2.10
2022-11-24T03:43:50.143Z,2.10
2022-11-24T03:46:18.371Z,2.10
2022-11-24T03:48:47.795Z,2.10
2022-11-24T03:51:15.915Z,2.10
2022-11-24T03:53:43.954Z,2.10
2022-11-24T03:56:12.081Z,2.10
2022-11-24T03:58:40.332Z,2.10
2022-11-24T04:01:08.438Z,2.10
2022-11-24T04:03:36.510Z,2.10
2022-11-24T04:06:05.988Z,2.10
2022-11-24T04:08:34.332Z,2.10
2022-11-24T04:11:02.447Z,2.10
2022-11-24T04:13:29.504Z,2.10
2022-11-24T04:15:57.603Z,2.10
2022-11-24T04:18:25.701Z,2.10
2022-11-24T04:20:54.126Z,2.10
2022-11-24T04:23:26.236Z,2.10
2022-11-24T04:25:54.260Z,2.10
2022-11-24T04:28:22.305Z,2.10
2022-11-24T04:30:50.323Z,2.10
2022-11-24T04:33:18.365Z,2.10
2022-11-24T04:35:47.919Z,2.10
2022-11-24T04:39:19.976Z,2.10
2022-11-24T04:41:06.396Z,2.10
2022-11-24T04:43:40.258Z,2.10
2022-11-24T04:46:11.721Z,2.10
2022-11-24T04:48:41.256Z,2.10
2022-11-24T04:51:09.389Z,2.10
2022-11-24T04:53:37.469Z,2.10
2022-11-24T04:56:08.675Z,2.10
2022-11-24T04:58:36.896Z,2.10
2022-11-24T05:01:08.416Z,2.10
2022-11-24T05:03:37.007Z,2.10
2022-11-24T05:06:05.519Z,2.00
2022-11-24T05:08:33.668Z,2.00
2022-11-24T05:11:06.384Z,2.10
2022-11-24T05:13:34.760Z,2.10
2022-11-24T05:16:03.077Z,2.10
2022-11-24T05:18:32.516Z,2.10
2022-11-24T05:21:01.227Z,2.10
2022-11-24T05:23:29.477Z,2.10
2022-11-24T05:26:01.856Z,2.10
2022-11-24T05:28:31.370Z,2.10
2022-11-24T05:31:01.547Z,2.10
2022-11-24T05:33:30.219Z,2.10
2022-11-24T05:36:02.502Z,2.20
2022-11-24T05:38:30.961Z,2.10
2022-11-24T05:41:02.471Z,2.10
2022-11-24T05:43:32.383Z,2.10
2022-11-24T05:46:01.074Z,2.10
2022-11-24T05:48:29.300Z,2.10
2022-11-24T05:50:58.187Z,2.10
2022-11-24T05:53:27.030Z,2.10
2022-11-24T05:55:55.112Z,2.10
2022-11-24T05:58:23.103Z,2.10
2022-11-24T06:00:53.344Z,2.10
2022-11-24T06:03:23.900Z,2.20
2022-11-24T06:05:51.942Z,2.10
2022-11-24T06:08:19.974Z,2.10
2022-11-24T06:10:47.973Z,2.10
2022-11-24T06:13:16.253Z,2.10
2022-11-24T06:15:44.347Z,2.10
2022-11-24T06:18:13.689Z,2.10
2022-11-24T06:20:42.212Z,2.10
2022-11-24T06:23:14.091Z,2.10
2022-11-24T06:25:48.663Z,2.10
2022-11-24T06:28:19.581Z,2.10
2022-11-24T06:30:48.243Z,2.10
2022-11-24T06:33:17.624Z,2.10
2022-11-24T06:35:45.581Z,2.10
2022-11-24T06:38:14.702Z,2.10
2022-11-24T06:40:42.949Z,2.10
2022-11-24T06:43:11.338Z,2.10
2022-11-24T06:45:39.509Z,2.10
2022-11-24T06:48:07.772Z,2.10
2022-11-24T06:50:37.483Z,2.10
2022-11-24T06:53:05.536Z,2.20
2022-11-24T06:55:33.526Z,2.10
2022-11-24T06:58:01.506Z,2.10
2022-11-24T07:00:32.103Z,2.10
2022-11-24T07:03:05.427Z,2.10
2022-11-24T07:05:33.491Z,2.10
2022-11-24T07:08:02.872Z,2.10
2022-11-24T07:10:30.853Z,2.10
2022-11-24T07:12:58.860Z,2.10
2022-11-24T07:15:29.452Z,2.10
2022-11-24T07:17:57.776Z,2.10
2022-11-24T07:20:25.759Z,2.10
2022-11-24T07:22:57.910Z,2.10
2022-11-24T07:25:27.527Z,2.10
2022-11-24T07:27:57.810Z,2.10
2022-11-24T07:30:26.255Z,2.10
2022-11-24T07:32:59.290Z,2.10
2022-11-24T07:35:27.546Z,2.10
2022-11-24T07:37:56.673Z,2.10
2022-11-24T07:40:25.953Z,2.10
2022-11-24T07:42:55.518Z,2.00
2022-11-24T07:45:23.538Z,2.10
2022-11-24T07:47:51.540Z,2.10
2022-11-24T07:50:20.183Z,2.10
2022-11-24T07:52:48.200Z,2.10
2022-11-24T07:55:16.312Z,2.10
2022-11-24T07:57:44.364Z,2.00
2022-11-24T08:00:15.049Z,2.10
2022-11-24T08:02:43.389Z,2.10
2022-11-24T08:05:11.374Z,2.10
2022-11-24T08:07:39.527Z,2.00
2022-11-24T08:10:08.733Z,2.10
2022-11-24T08:12:36.763Z,2.10
2022-11-24T08:15:10.947Z,2.10
2022-11-24T08:17:40.803Z,2.10
2022-11-24T08:20:10.399Z,2.10
2022-11-24T08:22:38.472Z,2.10
2022-11-24T08:25:07.207Z,2.10
2022-11-24T08:27:35.298Z,2.10
2022-11-24T08:30:05.179Z,2.10
2022-11-24T08:32:33.260Z,2.10
2022-11-24T08:35:13.984Z,2.20
2022-11-24T08:37:44.126Z,2.10
2022-11-24T08:40:13.526Z,2.10
2022-11-24T08:42:43.858Z,2.10
2022-11-24T08:45:21.048Z,2.20
2022-11-24T08:47:54.005Z,2.20
2022-11-24T08:50:24.673Z,2.20
2022-11-24T08:52:53.562Z,2.20
2022-11-24T08:55:21.971Z,2.20
2022-11-24T08:57:49.932Z,2.30
2022-11-24T09:00:23.743Z,2.30
2022-11-24T09:02:56.636Z,2.30
2022-11-24T09:05:50.785Z,2.30
2022-11-24T09:08:14.025Z,2.30
2022-11-24T09:10:42.012Z,2.30
2022-11-24T09:13:09.980Z,2.30
2022-11-24T09:15:37.993Z,2.30
2022-11-24T09:18:06.485Z,2.30
2022-11-24T09:20:36.446Z,2.40
2022-11-24T09:23:04.425Z,2.40
2022-11-24T09:25:33.152Z,2.40
2022-11-24T09:28:02.152Z,2.40
2022-11-24T09:30:30.349Z,2.40
2022-11-24T09:32:58.411Z,2.40
2022-11-24T09:35:26.745Z,2.40
2022-11-24T09:37:56.137Z,2.40
2022-11-24T09:40:24.398Z,2.40
2022-11-24T09:43:00.495Z,2.40
2022-11-24T09:46:04.445Z,2.50
2022-11-24T09:48:33.363Z,2.40
2022-11-24T09:51:04.969Z,2.40
2022-11-24T09:53:41.380Z,2.50
2022-11-24T09:56:19.719Z,2.50
2022-11-24T09:58:52.896Z,2.50
2022-11-24T10:01:22.683Z,2.50
2022-11-24T10:03:52.601Z,2.60
2022-11-24T10:06:30.549Z,2.50
2022-11-24T10:09:23.136Z,2.60
2022-11-24T10:12:02.678Z,2.60
2022-11-24T10:14:57.644Z,2.60
2022-11-24T10:17:42.421Z,2.60
2022-11-24T10:20:18.114Z,2.70
2022-11-24T10:22:53.364Z,2.60
2022-11-24T10:25:27.167Z,2.70
2022-11-24T10:28:00.505Z,2.70
2022-11-24T10:30:29.253Z,2.70
2022-11-24T10:32:59.530Z,2.70
2022-11-24T10:35:36.556Z,2.80
2022-11-24T10:38:15.167Z,2.70
2022-11-24T10:40:56.974Z,2.70
2022-11-24T10:43:28.837Z,2.70
2022-11-24T10:46:02.649Z,2.70
2022-11-24T10:48:38.345Z,2.70
2022-11-24T10:51:32.942Z,2.70
2022-11-24T10:54:06.783Z,2.70
2022-11-24T10:56:42.011Z,2.60
2022-11-24T10:59:38.726Z,2.60
2022-11-24T11:02:30.958Z,2.60
2022-11-24T11:04:59.403Z,2.60
2022-11-24T11:07:27.965Z,2.60
2022-11-24T11:10:19.046Z,2.60
2022-11-24T11:12:48.653Z,2.60
2022-11-24T11:15:28.905Z,2.60
2022-11-24T11:18:01.434Z,2.60
2022-11-24T11:20:32.373Z,2.60
2022-11-24T11:23:03.788Z,2.60
2022-11-24T11:25:34.350Z,2.50
2022-11-24T11:28:27.700Z,2.50
2022-11-24T11:31:20.915Z,2.50
2022-11-24T11:34:06.240Z,2.50
2022-11-24T11:36:40.906Z,2.50
2022-11-24T11:39:21.261Z,2.50
2022-11-24T11:41:51.119Z,2.50
2022-11-24T11:44:35.049Z,2.50
2022-11-24T11:47:13.904Z,2.40
2022-11-24T11:49:45.809Z,2.40
2022-11-24T11:52:54.853Z,2.40
2022-11-24T11:55:46.628Z,2.40
2022-11-24T11:59:09.046Z,2.40
2022-11-24T12:02:10.128Z,2.40
2022-11-24T12:04:48.781Z,2.40
2022-11-24T12:07:31.211Z,2.40
2022-11-24T12:10:04.635Z,2.40
2022-11-24T12:12:50.673Z,2.40
2022-11-24T12:15:24.089Z,2.40
2022-11-24T12:17:58.751Z,2.40
2022-11-24T12:20:49.139Z,2.40
2022-11-24T12:23:28.578Z,2.30
2022-11-24T12:26:02.477Z,2.40
2022-11-24T12:28:41.624Z,2.40
2022-11-24T12:31:16.221Z,2.40
2022-11-24T12:34:02.019Z,2.40
2022-11-24T12:36:45.975Z,2.40
2022-11-24T12:39:25.967Z,2.40
2022-11-24T12:42:05.884Z,2.40
2022-11-24T12:44:58.100Z,2.40
2022-11-24T12:47:35.190Z,2.40
2022-11-24T12:50:11.410Z,2.30
2022-11-24T12:52:47.621Z,2.40
2022-11-24T12:55:20.446Z,2.40
2022-11-24T12:57:54.911Z,2.40
2022-11-24T13:00:36.619Z,2.40
2022-11-24T13:03:20.556Z,2.40
2022-11-24T13:05:58.777Z,2.40
2022-11-24T13:08:27.586Z,2.40
2022-11-24T13:10:57.487Z,2.40
2022-11-24T13:13:31.372Z,2.40
2022-11-24T13:19:13.599Z,2.40
2022-11-24T13:22:04.386Z,2.40
2022-11-24T13:24:36.177Z,2.40
2022-11-24T13:27:29.957Z,2.40
2022-11-24T13:29:58.015Z,2.40
2022-11-24T13:33:03.439Z,2.40
2022-11-24T13:35:31.452Z,2.40
2022-11-24T13:38:01.070Z,2.50
2022-11-24T13:40:54.347Z,2.50
2022-11-24T13:43:30.117Z,2.50
2022-11-24T13:46:00.660Z,2.50
2022-11-24T13:49:00.155Z,2.50
2022-11-24T13:51:28.214Z,2.50
2022-11-24T13:54:00.852Z,2.50
2022-11-24T13:56:32.016Z,2.50
2022-11-24T13:59:02.235Z,2.50
2022-11-24T14:01:32.953Z,2.50
2022-11-24T14:04:31.403Z,2.50
2022-11-24T14:07:08.012Z,2.50
2022-11-24T14:09:43.878Z,2.50
2022-11-24T14:12:16.877Z,2.50
2022-11-24T14:14:47.030Z,2.40
2022-11-24T14:17:21.080Z,2.40
2022-11-24T14:19:50.777Z,2.30
2022-11-24T14:22:22.144Z,2.30
2022-11-24T14:24:56.481Z,2.30
2022-11-24T14:27:30.756Z,2.30
2022-11-24T14:30:00.801Z,2.20
2022-11-24T14:32:29.767Z,2.20
2022-11-24T14:34:57.825Z,2.20
2022-11-24T14:37:25.982Z,2.20
2022-11-24T14:39:55.430Z,2.20
2022-11-24T14:42:25.865Z,2.20
2022-11-24T14:44:56.532Z,2.20
2022-11-24T14:47:31.605Z,2.20
2022-11-24T14:50:11.020Z,2.20
2022-11-24T14:52:46.351Z,2.20
2022-11-24T14:55:28.443Z,2.20
2022-11-24T14:57:56.624Z,2.20
2022-11-24T15:00:34.837Z,2.10
2022-11-24T15:03:16.951Z,2.20
2022-11-24T15:05:53.964Z,2.20
2022-11-24T15:08:22.487Z,2.20
2022-11-24T15:10:59.013Z,2.20
2022-11-24T15:13:27.935Z,2.20
2022-11-24T15:16:02.930Z,2.20
2022-11-24T15:18:38.188Z,2.10
2022-11-24T15:21:06.363Z,2.10
2022-11-24T15:23:36.257Z,2.10
2022-11-24T15:26:35.477Z,2.10
2022-11-24T15:29:08.180Z,2.10
2022-11-24T15:31:38.277Z,2.10
2022-11-24T15:34:06.394Z,2.10
2022-11-24T15:36:34.685Z,2.10
2022-11-24T15:39:05.129Z,2.20
2022-11-24T15:41:36.657Z,2.10
2022-11-24T15:44:06.384Z,2.10
2022-11-24T15:46:38.575Z,2.10
2022-11-24T15:49:10.982Z,2.10
2022-11-24T15:51:43.504Z,2.10
2022-11-24T15:54:14.595Z,2.10
2022-11-24T15:56:44.400Z,2.10
2022-11-24T15:59:20.235Z,2.10
2022-11-24T16:01:50.813Z,2.10
2022-11-24T16:04:20.460Z,2.10
2022-11-24T16:06:48.711Z,2.10
2022-11-24T16:09:18.047Z,2.10
2022-11-24T16:11:46.023Z,2.00
2022-11-24T16:14:14.125Z,2.10
2022-11-24T16:16:42.366Z,2.10
2022-11-24T16:19:10.798Z,2.10
2022-11-24T16:21:40.258Z,2.10
2022-11-24T16:24:08.848Z,2.10
2022-11-24T16:26:36.859Z,2.00
2022-11-24T16:29:07.463Z,2.00
2022-11-24T16:31:36.818Z,2.10
2022-11-24T16:34:04.861Z,2.00
2022-11-24T16:36:32.937Z,2.10
2022-11-24T16:39:02.554Z,2.00
2022-11-24T16:41:30.596Z,2.10
2022-11-24T16:43:58.727Z,2.00
2022-11-24T16:46:27.015Z,2.00
2022-11-24T16:49:00.123Z,2.00
2022-11-24T16:51:34.440Z,2.00
2022-11-24T16:54:05.718Z,2.10
2022-11-24T16:56:33.952Z,2.10
2022-11-24T16:59:02.284Z,2.10
2022-11-24T17:01:30.821Z,2.10
2022-11-24T17:03:59.116Z,2.10
2022-11-24T17:06:27.682Z,2.00
2022-11-24T17:08:56.707Z,2.10
2022-11-24T17:11:27.804Z,2.00
2022-11-24T17:13:57.658Z,2.00
2022-11-24T17:16:27.169Z,2.10
2022-11-24T17:18:55.498Z,2.00
2022-11-24T17:21:25.133Z,2.10
2022-11-24T17:23:55.609Z,2.00
2022-11-24T17:26:28.275Z,2.00
2022-11-24T17:28:56.985Z,2.00
2022-11-24T17:31:27.219Z,2.00
2022-11-24T17:33:57.081Z,2.00
2022-11-24T17:36:29.332Z,2.00
2022-11-24T17:38:57.689Z,2.00
2022-11-24T17:41:27.751Z,2.00
2022-11-24T17:43:56.945Z,2.00
2022-11-24T17:46:25.534Z,2.00
2022-11-24T17:48:54.022Z,2.00
2022-11-24T17:51:23.620Z,2.00
2022-11-24T17:53:54.129Z,2.00
2022-11-24T17:56:26.847Z,2.00
2022-11-24T17:58:57.342Z,2.00
2022-11-24T18:01:26.472Z,2.00
2022-11-24T18:03:56.245Z,2.00
2022-11-24T18:06:25.424Z,2.00
2022-11-24T18:08:54.512Z,2.00
2022-11-24T18:11:30.576Z,2.00
2022-11-24T18:14:02.682Z,2.00
2022-11-24T18:16:32.472Z,2.00
2022-11-24T18:19:08.892Z,2.00
2022-11-24T18:21:38.815Z,2.00
2022-11-24T18:24:07.814Z,2.00
2022-11-24T18:26:37.924Z,2.00
2022-11-24T18:29:07.849Z,2.00
2022-11-24T18:31:36.769Z,2.00
2022-11-24T18:34:06.211Z,2.00
2022-11-24T18:36:35.122Z,2.00
2022-11-24T18:39:03.740Z,2.00
2022-11-24T18:41:31.858Z,2.00
2022-11-24T18:44:02.211Z,2.00
2022-11-24T18:46:31.718Z,2.00
2022-11-24T18:48:59.726Z,2.00
2022-11-24T18:51:30.021Z,2.00
2022-11-24T18:53:58.958Z,2.00
2022-11-24T18:56:27.842Z,2.00
2022-11-24T18:58:57.297Z,2.00
2022-11-24T19:01:26.639Z,2.00
2022-11-24T19:03:58.081Z,2.00
2022-11-24T19:06:31.920Z,2.00
2022-11-24T19:09:01.644Z,2.00
2022-11-24T19:11:32.395Z,2.00
2022-11-24T19:14:00.663Z,2.00
2022-11-24T19:16:29.074Z,2.00
2022-11-24T19:19:00.392Z,2.00
2022-11-24T19:21:29.057Z,2.00
2022-11-24T19:24:02.903Z,2.00
2022-11-24T19:26:33.028Z,2.00
2022-11-24T19:29:01.048Z,2.00
2022-11-24T19:31:29.164Z,2.10
2022-11-24T19:33:59.710Z,2.00
2022-11-24T19:36:28.024Z,2.00
2022-11-24T19:38:57.531Z,2.00
2022-11-24T19:41:27.574Z,2.00
2022-11-24T19:43:56.581Z,2.00
2022-11-24T19:46:27.252Z,2.00
2022-11-24T19:48:57.007Z,2.00
2022-11-24T19:51:30.474Z,2.00
2022-11-24T19:53:58.956Z,2.00
2022-11-24T19:56:29.114Z,2.00
2022-11-24T19:58:57.652Z,2.00
2022-11-24T20:01:27.618Z,2.00
2022-11-24T20:03:59.192Z,2.00
2022-11-24T20:06:30.067Z,2.00
2022-11-24T20:09:00.354Z,2.00
2022-11-24T20:11:29.325Z,2.10
2022-11-24T20:13:58.207Z,2.00
2022-11-24T20:16:29.563Z,2.00
2022-11-24T20:18:59.555Z,2.00
2022-11-24T20:21:31.207Z,2.00
2022-11-24T20:24:01.116Z,2.00
2022-11-24T20:26:34.601Z,2.00
2022-11-24T20:29:03.963Z,2.00
2022-11-24T20:31:34.237Z,2.00
2022-11-24T20:34:03.719Z,2.00
2022-11-24T20:36:34.618Z,2.00
2022-11-24T20:39:05.176Z,2.00
2022-11-24T20:41:35.148Z,2.00
2022-11-24T20:44:07.168Z,2.00
2022-11-24T20:46:37.859Z,2.00
2022-11-24T20:49:11.448Z,2.00
2022-11-24T20:51:44.862Z,2.00
2022-11-24T20:54:14.563Z,2.00
2022-11-24T20:56:46.329Z,2.00
2022-11-24T20:59:16.416Z,2.00
2022-11-24T21:01:46.138Z,2.00
2022-11-24T21:04:16.660Z,2.00
2022-11-24T21:06:46.183Z,2.10
2022-11-24T21:09:14.192Z,2.10
2022-11-24T21:11:42.666Z,2.10
2022-11-24T21:14:11.266Z,2.10
2022-11-24T21:16:41.043Z,2.10
2022-11-24T21:19:12.426Z,2.10
2022-11-24T21:21:42.833Z,2.00
2022-11-24T21:24:14.755Z,2.00
2022-11-24T21:26:47.479Z,2.10
2022-11-24T21:29:17.254Z,2.00
2022-11-24T21:31:45.725Z,2.00
2022-11-24T21:34:16.205Z,2.00
2022-11-24T21:36:45.528Z,2.00
2022-11-24T21:39:16.245Z,2.10
2022-11-24T21:41:45.534Z,2.00
2022-11-24T21:44:13.853Z,2.00
2022-11-24T21:46:47.004Z,2.00
2022-11-24T21:49:17.608Z,2.00
2022-11-24T21:51:47.140Z,2.00
2022-11-24T21:54:16.534Z,2.00
2022-11-24T21:56:44.505Z,2.00
2022-11-24T21:59:12.591Z,2.00
2022-11-24T22:01:40.579Z,2.00
2022-11-24T22:04:08.609Z,2.00
2022-11-24T22:06:36.645Z,2.00
2022-11-24T22:09:04.822Z,2.00
2022-11-24T22:11:34.191Z,2.00
2022-11-24T22:14:02.195Z,2.00
2022-11-24T22:16:30.897Z,2.00
2022-11-24T22:19:00.971Z,2.00
2022-11-24T22:21:30.762Z,2.00
2022-11-24T22:23:58.785Z,2.00
2022-11-24T22:26:27.924Z,2.00
2022-11-24T22:29:01.272Z,2.00
2022-11-24T22:31:31.761Z,1.90
2022-11-24T22:34:00.992Z,1.90
2022-11-24T22:36:30.271Z,1.90
2022-11-24T22:38:59.899Z,2.00
2022-11-24T22:41:27.920Z,1.90
2022-11-24T22:43:57.305Z,1.90
2022-11-24T22:46:28.523Z,1.90
2022-11-24T22:48:59.073Z,1.90
2022-11-24T22:51:28.974Z,1.90
2022-11-24T22:54:00.530Z,2.00
2022-11-24T22:56:29.689Z,2.00
2022-11-24T22:58:59.236Z,2.00
2022-11-24T23:01:28.577Z,1.90
2022-11-24T23:03:56.811Z,2.00
2022-11-24T23:06:26.479Z,2.00
2022-11-24T23:08:54.806Z,2.00
2022-11-24T23:11:32.745Z,2.00
2022-11-24T23:14:07.127Z,2.00
2022-11-24T23:16:35.473Z,2.00
2022-11-24T23:19:03.821Z,2.00
2022-11-24T23:21:33.207Z,2.00
2022-11-24T23:24:05.144Z,2.00
2022-11-24T23:26:35.253Z,2.00
2022-11-24T23:29:05.480Z,2.00
2022-11-24T23:31:33.643Z,2.00
2022-11-24T23:34:03.393Z,2.00
2022-11-24T23:36:32.375Z,2.00
2022-11-24T23:39:05.811Z,2.00
2022-11-24T23:41:33.823Z,1.90
2022-11-24T23:44:02.517Z,2.00
2022-11-24T23:46:32.133Z,2.00
2022-11-24T23:49:00.319Z,2.00
2022-11-24T23:51:29.934Z,1.90
2022-11-24T23:53:58.304Z,2.00
2022-11-24T23:56:30.752Z,1.90
2022-11-24T23:58:59.690Z,2.00
